createdAt,value
2023-01-19T00:00:16.807Z,94.6
2023-01-19T00:01:17.350Z,94.6
2023-01-19T00:02:17.043Z,94.7
2023-01-19T00:03:16.648Z,94.7
2023-01-19T00:04:17.203Z,94.8
2023-01-19T00:05:16.696Z,94.8
2023-01-19T00:06:17.270Z,94.8
2023-01-19T00:07:16.771Z,94.8
2023-01-19T00:08:17.264Z,94.9
2023-01-19T00:09:16.808Z,95.0
2023-01-19T00:10:17.302Z,95.3
2023-01-19T00:11:16.782Z,95.5
2023-01-19T00:12:16.655Z,95.4
2023-01-19T00:13:17.202Z,95.4
2023-01-19T00:14:16.753Z,95.4
2023-01-19T00:15:17.312Z,95.4
2023-01-19T00:16:16.918Z,95.3
2023-01-19T00:17:17.438Z,95.2
2023-01-19T00:18:16.953Z,95.0
2023-01-19T00:19:17.459Z,95.0
2023-01-19T00:20:16.957Z,95.0
2023-01-19T00:21:17.531Z,95.1
2023-01-19T00:22:16.864Z,95.0
2023-01-19T00:23:17.487Z,95.0
2023-01-19T00:24:16.983Z,94.9
2023-01-19T00:25:16.517Z,94.8
2023-01-19T00:26:17.052Z,94.8
2023-01-19T00:27:16.581Z,95.0
2023-01-19T00:28:17.128Z,95.0
2023-01-19T00:29:16.648Z,95.0
2023-01-19T00:30:17.189Z,95.0
2023-01-19T00:31:16.856Z,95.0
2023-01-19T00:32:17.439Z,95.0
2023-01-19T00:33:16.935Z,95.0
2023-01-19T00:34:17.437Z,95.0
2023-01-19T00:35:16.948Z,95.0
2023-01-19T00:36:17.457Z,95.0
2023-01-19T00:37:16.985Z,95.1
2023-01-19T00:38:16.511Z,95.1
2023-01-19T00:39:17.061Z,95.1
2023-01-19T00:40:16.582Z,95.1
2023-01-19T00:41:17.100Z,95.1
2023-01-19T00:42:16.486Z,95.2
2023-01-19T00:43:17.035Z,95.2
2023-01-19T00:44:16.569Z,95.3
2023-01-19T00:45:17.053Z,95.4
2023-01-19T00:46:16.552Z,95.3
2023-01-19T00:47:17.075Z,95.3
2023-01-19T00:48:16.607Z,95.2
2023-01-19T00:49:17.260Z,95.1
2023-01-19T00:50:16.881Z,95.1
2023-01-19T00:51:17.410Z,95.1
2023-01-19T00:52:16.999Z,95.1
2023-01-19T00:53:16.518Z,95.1
2023-01-19T00:54:17.026Z,95.1
2023-01-19T00:55:16.542Z,95.1
2023-01-19T00:56:17.045Z,95.1
2023-01-19T00:57:16.560Z,95.0
2023-01-19T00:58:17.120Z,95.0
2023-01-19T00:59:16.631Z,95.1
2023-01-19T01:00:17.169Z,95.1
2023-01-19T01:01:16.959Z,95.1
2023-01-19T01:02:17.868Z,95.1
2023-01-19T01:03:16.748Z,95.2
2023-01-19T01:04:17.251Z,95.2
2023-01-19T01:05:16.764Z,95.2
2023-01-19T01:06:17.255Z,95.1
2023-01-19T01:07:16.760Z,95.1
2023-01-19T01:08:17.259Z,95.2
2023-01-19T01:09:16.775Z,95.2
2023-01-19T01:10:17.295Z,95.3
2023-01-19T01:11:16.790Z,95.3
2023-01-19T01:12:17.388Z,95.4
2023-01-19T01:13:23.806Z,95.4
2023-01-19T01:14:16.663Z,95.4
2023-01-19T01:15:17.265Z,95.4
2023-01-19T01:16:16.838Z,95.4
2023-01-19T01:17:17.364Z,95.4
2023-01-19T01:18:16.850Z,95.5
2023-01-19T01:19:17.380Z,95.5
2023-01-19T01:20:16.915Z,95.5
2023-01-19T01:21:17.405Z,95.5
2023-01-19T01:22:16.655Z,95.4
2023-01-19T01:23:17.183Z,95.4
2023-01-19T01:24:16.660Z,95.3
2023-01-19T01:25:17.186Z,95.3
2023-01-19T01:26:16.691Z,95.4
2023-01-19T01:27:17.177Z,95.4
2023-01-19T01:28:16.820Z,95.4
2023-01-19T01:29:17.346Z,95.4
2023-01-19T01:30:16.869Z,95.5
2023-01-19T01:31:17.532Z,95.5
2023-01-19T01:32:17.024Z,95.5
2023-01-19T01:33:40.339Z,95.6
2023-01-19T01:34:17.053Z,95.5
2023-01-19T01:35:16.595Z,95.5
2023-01-19T01:36:17.088Z,95.5
2023-01-19T01:37:16.596Z,95.6
2023-01-19T01:38:17.101Z,95.7
2023-01-19T01:39:16.635Z,95.6
2023-01-19T01:40:17.133Z,95.7
2023-01-19T01:41:16.644Z,95.8
2023-01-19T01:42:16.945Z,95.8
2023-01-19T01:43:17.444Z,95.8
2023-01-19T01:44:16.954Z,95.8
2023-01-19T01:45:17.473Z,95.8
2023-01-19T01:46:17.491Z,95.8
2023-01-19T01:47:17.111Z,95.7
2023-01-19T01:48:16.633Z,95.8
2023-01-19T01:49:17.138Z,95.7
2023-01-19T01:50:16.692Z,95.7
2023-01-19T01:51:17.201Z,95.7
2023-01-19T01:52:16.825Z,95.7
2023-01-19T01:53:17.321Z,95.7
2023-01-19T01:54:16.854Z,95.7
2023-01-19T01:55:17.362Z,95.8
2023-01-19T01:56:16.884Z,95.8
2023-01-19T01:57:17.431Z,95.8
2023-01-19T01:58:16.932Z,95.8
2023-01-19T01:59:17.477Z,95.9
2023-01-19T02:00:17.019Z,95.8
2023-01-19T02:01:16.838Z,95.8
2023-01-19T02:02:17.410Z,95.8
2023-01-19T02:03:17.120Z,95.9
2023-01-19T02:04:16.632Z,96.0
2023-01-19T02:05:17.138Z,96.1
2023-01-19T02:06:16.629Z,96.1
2023-01-19T02:07:17.141Z,96.2
2023-01-19T02:08:16.644Z,96.1
2023-01-19T02:09:17.165Z,96.1
2023-01-19T02:10:16.661Z,96.0
2023-01-19T02:11:17.209Z,96.0
2023-01-19T02:12:16.618Z,96.0
2023-01-19T02:13:17.093Z,95.9
2023-01-19T02:14:16.640Z,95.9
2023-01-19T02:15:17.183Z,95.9
2023-01-19T02:16:16.816Z,95.9
2023-01-19T02:17:17.373Z,95.9
2023-01-19T02:18:16.884Z,96.0
2023-01-19T02:19:17.387Z,96.0
2023-01-19T02:20:16.886Z,95.9
2023-01-19T02:21:17.400Z,96.0
2023-01-19T02:22:16.935Z,96.0
2023-01-19T02:23:17.436Z,95.9
2023-01-19T02:24:16.927Z,95.8
2023-01-19T02:25:17.445Z,95.8
2023-01-19T02:26:16.941Z,95.8
2023-01-19T02:27:17.425Z,95.8
2023-01-19T02:28:16.936Z,95.7
2023-01-19T02:29:17.487Z,95.7
2023-01-19T02:30:17.104Z,95.7
2023-01-19T02:31:16.597Z,95.7
2023-01-19T02:32:16.944Z,95.7
2023-01-19T02:33:17.433Z,95.7
2023-01-19T02:34:16.932Z,95.8
2023-01-19T02:35:17.440Z,95.8
2023-01-19T02:36:16.987Z,95.8
2023-01-19T02:37:16.525Z,95.7
2023-01-19T02:38:17.031Z,95.7
2023-01-19T02:39:16.553Z,95.7
2023-01-19T02:40:17.318Z,95.6
2023-01-19T02:41:16.846Z,95.6
2023-01-19T02:42:17.088Z,95.6
2023-01-19T02:43:16.591Z,95.6
2023-01-19T02:44:17.084Z,95.6
2023-01-19T02:45:16.582Z,95.5
2023-01-19T02:46:17.246Z,95.5
2023-01-19T02:47:16.919Z,95.5
2023-01-19T02:48:16.575Z,95.4
2023-01-19T02:49:17.084Z,95.4
2023-01-19T02:50:16.566Z,95.4
2023-01-19T02:51:17.094Z,95.4
2023-01-19T02:52:16.597Z,95.3
2023-01-19T02:53:17.065Z,95.4
2023-01-19T02:54:16.589Z,95.4
2023-01-19T02:55:17.088Z,95.4
2023-01-19T02:56:16.708Z,95.4
2023-01-19T02:57:17.220Z,95.4
2023-01-19T02:58:16.751Z,95.4
2023-01-19T02:59:17.289Z,95.4
2023-01-19T03:00:16.828Z,95.4
2023-01-19T03:01:17.465Z,95.4
2023-01-19T03:02:17.193Z,95.4
2023-01-19T03:03:16.766Z,95.5
2023-01-19T03:04:17.332Z,95.5
2023-01-19T03:05:16.843Z,95.6
2023-01-19T03:06:17.368Z,95.6
2023-01-19T03:07:16.858Z,95.6
2023-01-19T03:08:17.382Z,95.7
2023-01-19T03:09:16.900Z,95.6
2023-01-19T03:10:17.396Z,95.6
2023-01-19T03:11:16.938Z,95.6
2023-01-19T03:12:17.002Z,95.6
2023-01-19T03:13:16.484Z,95.6
2023-01-19T03:14:16.990Z,95.6
2023-01-19T03:15:16.487Z,95.6
2023-01-19T03:16:17.135Z,95.6
2023-01-19T03:17:16.664Z,95.6
2023-01-19T03:18:17.187Z,95.6
2023-01-19T03:19:16.702Z,95.6
2023-01-19T03:20:17.173Z,95.6
2023-01-19T03:21:16.859Z,95.6
2023-01-19T03:22:17.259Z,95.6
2023-01-19T03:23:16.767Z,95.6
2023-01-19T03:24:17.257Z,95.6
2023-01-19T03:25:16.747Z,95.8
2023-01-19T03:26:17.238Z,95.8
2023-01-19T03:27:16.761Z,95.9
2023-01-19T03:28:17.266Z,95.9
2023-01-19T03:29:16.767Z,96.0
2023-01-19T03:30:17.262Z,96.0
2023-01-19T03:31:16.903Z,96.1
2023-01-19T03:32:17.377Z,96.1
2023-01-19T03:33:16.918Z,96.2
2023-01-19T03:34:17.406Z,96.1
2023-01-19T03:35:17.185Z,96.1
2023-01-19T03:36:16.706Z,96.1
2023-01-19T03:37:17.199Z,96.1
2023-01-19T03:38:16.717Z,96.0
2023-01-19T03:39:17.215Z,96.0
2023-01-19T03:40:16.740Z,96.0
2023-01-19T03:41:17.254Z,96.0
2023-01-19T03:42:16.625Z,96.1
2023-01-19T03:43:17.148Z,96.0
2023-01-19T03:44:16.632Z,96.1
2023-01-19T03:45:17.153Z,96.1
2023-01-19T03:46:16.797Z,96.2
2023-01-19T03:47:17.291Z,96.2
2023-01-19T03:48:16.767Z,96.2
2023-01-19T03:49:17.267Z,96.2
2023-01-19T03:50:16.764Z,96.2
2023-01-19T03:51:17.322Z,96.2
2023-01-19T03:52:17.244Z,96.2
2023-01-19T03:53:16.764Z,96.2
2023-01-19T03:54:17.301Z,96.2
2023-01-19T03:55:16.818Z,96.1
2023-01-19T03:56:17.294Z,96.1
2023-01-19T03:57:16.791Z,96.1
2023-01-19T03:58:17.290Z,96.2
2023-01-19T03:59:16.754Z,96.2
2023-01-19T04:00:17.248Z,96.2
2023-01-19T04:01:16.987Z,96.2
2023-01-19T04:02:17.373Z,96.3
2023-01-19T04:03:16.913Z,96.2
2023-01-19T04:04:17.430Z,96.2
2023-01-19T04:05:16.913Z,96.1
2023-01-19T04:06:17.445Z,96.2
2023-01-19T04:07:16.963Z,96.2
2023-01-19T04:08:17.483Z,96.2
2023-01-19T04:09:20.212Z,96.1
2023-01-19T04:10:16.754Z,96.1
2023-01-19T04:11:17.251Z,96.1
2023-01-19T04:12:16.642Z,96.2
2023-01-19T04:13:17.184Z,96.1
2023-01-19T04:14:16.656Z,96.1
2023-01-19T04:15:17.159Z,96.1
2023-01-19T04:16:16.821Z,96.0
2023-01-19T04:17:17.295Z,96.0
2023-01-19T04:18:16.834Z,96.1
2023-01-19T04:19:17.372Z,96.1
2023-01-19T04:20:16.871Z,96.2
2023-01-19T04:21:17.383Z,96.3
2023-01-19T04:22:16.874Z,96.2
2023-01-19T04:23:17.381Z,96.1
2023-01-19T04:24:16.879Z,96.1
2023-01-19T04:25:16.507Z,96.2
2023-01-19T04:26:17.024Z,96.1
2023-01-19T04:27:16.535Z,96.2
2023-01-19T04:28:17.032Z,96.2
2023-01-19T04:29:16.537Z,95.9
2023-01-19T04:30:17.053Z,95.8
2023-01-19T04:31:16.647Z,95.8
2023-01-19T04:32:17.031Z,95.8
2023-01-19T04:33:16.521Z,95.8
2023-01-19T04:34:17.036Z,95.8
2023-01-19T04:35:16.543Z,95.9
2023-01-19T04:36:17.066Z,95.9
2023-01-19T04:37:16.604Z,95.9
2023-01-19T04:38:17.318Z,95.9
2023-01-19T04:39:16.843Z,95.7
2023-01-19T04:40:17.344Z,95.3
2023-01-19T04:41:16.834Z,95.3
2023-01-19T04:42:16.590Z,95.2
2023-01-19T04:43:17.067Z,95.2
2023-01-19T04:44:16.569Z,94.9
2023-01-19T04:45:17.116Z,94.8
2023-01-19T04:46:16.742Z,95.0
2023-01-19T04:47:17.269Z,95.0
2023-01-19T04:48:16.807Z,95.1
2023-01-19T04:49:17.328Z,95.2
2023-01-19T04:50:16.883Z,95.2
2023-01-19T04:51:17.427Z,95.2
2023-01-19T04:52:17.035Z,95.2
2023-01-19T04:53:16.549Z,95.2
2023-01-19T04:54:17.171Z,95.2
2023-01-19T04:55:16.659Z,95.2
2023-01-19T04:56:17.166Z,95.2
2023-01-19T04:57:16.651Z,95.2
2023-01-19T04:58:17.133Z,95.2
2023-01-19T04:59:16.638Z,95.2
2023-01-19T05:00:17.150Z,95.2
2023-01-19T05:01:16.816Z,95.0
2023-01-19T05:02:17.334Z,95.0
2023-01-19T05:03:17.005Z,95.0
2023-01-19T05:04:16.547Z,94.8
2023-01-19T05:05:17.048Z,94.9
2023-01-19T05:06:16.538Z,94.9
2023-01-19T05:07:17.044Z,95.1
2023-01-19T05:08:16.543Z,95.1
2023-01-19T05:09:17.038Z,95.1
2023-01-19T05:10:16.538Z,95.0
2023-01-19T05:11:17.030Z,94.9
2023-01-19T05:12:16.883Z,95.0
2023-01-19T05:13:17.396Z,95.3
2023-01-19T05:14:16.910Z,95.3
2023-01-19T05:15:17.413Z,95.2
2023-01-19T05:16:17.035Z,95.0
2023-01-19T05:17:16.584Z,95.0
2023-01-19T05:18:17.103Z,94.9
2023-01-19T05:19:16.624Z,95.0
2023-01-19T05:20:17.186Z,95.0
2023-01-19T05:21:16.752Z,95.1
2023-01-19T05:22:16.954Z,95.1
2023-01-19T05:23:17.466Z,95.1
2023-01-19T05:24:16.996Z,95.2
2023-01-19T05:25:16.504Z,95.2
2023-01-19T05:26:17.023Z,95.2
2023-01-19T05:27:16.519Z,95.2
2023-01-19T05:28:17.030Z,95.2
2023-01-19T05:29:16.511Z,95.3
2023-01-19T05:30:16.997Z,95.4
2023-01-19T05:31:19.678Z,95.4
2023-01-19T05:32:16.932Z,95.4
2023-01-19T05:33:17.434Z,95.4
2023-01-19T05:34:16.974Z,95.3
2023-01-19T05:35:22.393Z,95.2
2023-01-19T05:36:17.228Z,95.2
2023-01-19T05:37:16.741Z,95.1
2023-01-19T05:38:29.583Z,95.2
2023-01-19T05:39:16.650Z,95.2
2023-01-19T05:40:17.145Z,95.2
2023-01-19T05:41:16.708Z,95.1
2023-01-19T05:42:17.090Z,95.1
2023-01-19T05:43:16.581Z,95.2
2023-01-19T05:44:17.101Z,95.2
2023-01-19T05:45:16.621Z,95.2
2023-01-19T05:46:17.211Z,95.2
2023-01-19T05:47:16.708Z,95.2
2023-01-19T05:48:17.229Z,95.4
2023-01-19T05:49:16.721Z,95.4
2023-01-19T05:50:17.204Z,95.4
2023-01-19T05:51:16.731Z,95.2
2023-01-19T05:52:17.056Z,95.2
2023-01-19T05:53:16.546Z,95.1
2023-01-19T05:54:17.036Z,95.1
2023-01-19T05:55:16.560Z,95.1
2023-01-19T05:56:17.074Z,95.1
2023-01-19T05:57:16.621Z,95.1
2023-01-19T05:58:17.350Z,95.2
2023-01-19T05:59:16.816Z,95.2
2023-01-19T06:00:16.519Z,95.3
2023-01-19T06:01:17.083Z,95.4
2023-01-19T06:02:17.115Z,95.6
2023-01-19T06:03:16.819Z,95.6
2023-01-19T06:04:17.342Z,95.5
2023-01-19T06:05:16.872Z,95.5
2023-01-19T06:06:17.402Z,95.6
2023-01-19T06:07:16.922Z,95.7
2023-01-19T06:08:17.428Z,95.7
2023-01-19T06:09:16.970Z,95.6
2023-01-19T06:10:16.503Z,95.6
2023-01-19T06:11:17.064Z,95.6
2023-01-19T06:12:16.719Z,95.5
2023-01-19T06:13:17.216Z,95.4
2023-01-19T06:14:16.730Z,95.3
2023-01-19T06:15:17.273Z,95.3
2023-01-19T06:16:16.854Z,95.2
2023-01-19T06:17:17.370Z,95.1
2023-01-19T06:18:16.866Z,95.1
2023-01-19T06:19:17.359Z,94.8
2023-01-19T06:20:16.904Z,94.6
2023-01-19T06:21:17.470Z,94.5
2023-01-19T06:22:16.799Z,94.6
2023-01-19T06:23:17.330Z,94.7
2023-01-19T06:24:16.859Z,94.7
2023-01-19T06:25:17.396Z,94.7
2023-01-19T06:26:16.901Z,94.7
2023-01-19T06:27:17.385Z,94.7
2023-01-19T06:28:16.867Z,94.7
2023-01-19T06:29:17.378Z,94.6
2023-01-19T06:30:16.868Z,94.7
2023-01-19T06:31:17.633Z,94.6
2023-01-19T06:32:17.076Z,94.5
2023-01-19T06:33:16.592Z,94.6
2023-01-19T06:34:17.084Z,94.6
2023-01-19T06:35:16.584Z,94.7
2023-01-19T06:36:17.151Z,94.7
2023-01-19T06:37:16.958Z,94.7
2023-01-19T06:38:17.491Z,94.7
2023-01-19T06:39:16.992Z,94.9
2023-01-19T06:40:16.524Z,94.9
2023-01-19T06:41:17.009Z,94.9
2023-01-19T06:42:16.623Z,94.9
2023-01-19T06:43:17.116Z,95.0
2023-01-19T06:44:16.628Z,94.9
2023-01-19T06:45:17.215Z,94.9
2023-01-19T06:46:16.909Z,94.9
2023-01-19T06:47:17.418Z,95.1
2023-01-19T06:48:17.096Z,94.7
2023-01-19T06:49:16.608Z,94.7
2023-01-19T06:50:17.127Z,94.8
2023-01-19T06:51:16.649Z,94.9
2023-01-19T06:52:16.641Z,94.9
2023-01-19T06:53:17.136Z,94.9
2023-01-19T06:54:16.667Z,94.9
2023-01-19T06:55:18.128Z,95.1
2023-01-19T06:56:16.879Z,94.9
2023-01-19T06:57:17.598Z,94.9
2023-01-19T06:58:17.152Z,94.5
2023-01-19T06:59:16.663Z,94.1
2023-01-19T07:00:17.187Z,94.3
2023-01-19T07:01:16.872Z,94.3
2023-01-19T07:02:28.786Z,94.3
2023-01-19T07:03:16.561Z,94.4
2023-01-19T07:04:17.125Z,94.5
2023-01-19T07:05:16.634Z,94.5
2023-01-19T07:06:17.107Z,94.6
2023-01-19T07:07:16.642Z,94.6
2023-01-19T07:08:17.161Z,94.6
2023-01-19T07:09:17.176Z,94.6
2023-01-19T07:10:16.674Z,94.6
2023-01-19T07:11:31.775Z,94.6
2023-01-19T07:12:16.641Z,94.6
2023-01-19T07:13:17.317Z,94.6
2023-01-19T07:14:16.909Z,94.6
2023-01-19T07:15:17.497Z,94.7
2023-01-19T07:16:17.118Z,94.8
2023-01-19T07:17:16.662Z,94.9
2023-01-19T07:18:17.184Z,94.9
2023-01-19T07:19:16.685Z,94.9
2023-01-19T07:20:17.172Z,94.8
2023-01-19T07:21:16.691Z,94.8
2023-01-19T07:22:16.567Z,94.8
2023-01-19T07:23:17.051Z,94.8
2023-01-19T07:24:16.537Z,94.7
2023-01-19T07:25:17.054Z,94.7
2023-01-19T07:26:16.589Z,94.6
2023-01-19T07:27:17.101Z,94.6
2023-01-19T07:28:16.605Z,94.4
2023-01-19T07:29:17.097Z,94.4
2023-01-19T07:30:16.580Z,94.3
2023-01-19T07:31:17.436Z,94.4
2023-01-19T07:32:17.436Z,94.3
2023-01-19T07:33:16.935Z,94.5
2023-01-19T07:34:17.442Z,94.2
2023-01-19T07:35:16.960Z,94.1
2023-01-19T07:36:17.487Z,94.2
2023-01-19T07:37:16.981Z,94.0
2023-01-19T07:38:16.465Z,94.0
2023-01-19T07:39:16.964Z,94.1
2023-01-19T07:40:17.481Z,94.2
2023-01-19T07:41:16.993Z,94.2
2023-01-19T07:42:17.297Z,94.2
2023-01-19T07:43:16.771Z,94.2
2023-01-19T07:44:17.275Z,94.3
2023-01-19T07:45:16.830Z,94.3
2023-01-19T07:46:17.509Z,94.3
2023-01-19T07:47:17.017Z,94.3
2023-01-19T07:48:16.570Z,94.3
2023-01-19T07:49:17.076Z,94.3
2023-01-19T07:50:16.602Z,94.4
2023-01-19T07:51:17.098Z,94.4
2023-01-19T07:52:16.664Z,94.4
2023-01-19T07:53:17.288Z,94.3
2023-01-19T07:54:16.831Z,94.4
2023-01-19T07:55:17.343Z,94.3
2023-01-19T07:56:16.894Z,94.3
2023-01-19T07:57:17.413Z,94.3
2023-01-19T07:58:16.903Z,94.4
2023-01-19T07:59:17.473Z,94.4
2023-01-19T08:00:16.974Z,94.4
2023-01-19T08:01:16.698Z,94.4
2023-01-19T08:02:17.709Z,94.4
2023-01-19T08:03:17.236Z,94.4
2023-01-19T08:04:16.879Z,94.3
2023-01-19T08:05:17.407Z,94.4
2023-01-19T08:06:16.978Z,94.3
2023-01-19T08:07:16.518Z,94.4
2023-01-19T08:08:17.044Z,94.3
2023-01-19T08:09:16.550Z,94.3
2023-01-19T08:10:17.100Z,94.3
2023-01-19T08:11:16.607Z,94.2
2023-01-19T08:12:17.090Z,94.2
2023-01-19T08:13:16.607Z,94.1
2023-01-19T08:14:17.108Z,94.1
2023-01-19T08:15:16.640Z,94.1
2023-01-19T08:16:17.166Z,94.0
2023-01-19T08:17:16.730Z,94.1
2023-01-19T08:18:17.252Z,94.1
2023-01-19T08:19:16.761Z,94.1
2023-01-19T08:20:17.323Z,94.2
2023-01-19T08:21:16.857Z,94.1
2023-01-19T08:22:16.497Z,94.1
2023-01-19T08:23:17.004Z,94.0
2023-01-19T08:24:16.574Z,93.7
2023-01-19T08:25:17.078Z,93.6
2023-01-19T08:26:16.608Z,93.7
2023-01-19T08:27:17.134Z,93.4
2023-01-19T08:28:16.669Z,93.2
2023-01-19T08:29:17.240Z,93.3
2023-01-19T08:30:16.755Z,93.1
2023-01-19T08:31:24.444Z,93.2
2023-01-19T08:32:17.224Z,93.2
2023-01-19T08:33:16.808Z,93.0
2023-01-19T08:34:17.301Z,92.8
2023-01-19T08:35:16.851Z,92.7
2023-01-19T08:36:17.336Z,92.9
2023-01-19T08:37:16.879Z,92.3
2023-01-19T08:38:17.394Z,91.9
2023-01-19T08:39:16.916Z,91.7
2023-01-19T08:40:17.430Z,91.5
2023-01-19T08:41:16.938Z,92.1
2023-01-19T08:42:16.553Z,92.2
2023-01-19T08:43:17.125Z,92.0
2023-01-19T08:44:16.674Z,92.0
2023-01-19T08:45:17.176Z,92.0
2023-01-19T08:46:16.761Z,91.8
2023-01-19T08:47:17.403Z,91.9
2023-01-19T08:48:17.029Z,91.4
2023-01-19T08:49:16.558Z,91.5
2023-01-19T08:50:17.056Z,91.7
2023-01-19T08:51:16.566Z,91.9
2023-01-19T08:52:17.189Z,91.7
2023-01-19T08:53:16.701Z,91.6
2023-01-19T08:54:18.876Z,92.0
2023-01-19T08:55:17.422Z,92.0
2023-01-19T08:56:20.675Z,92.3
2023-01-19T08:57:17.229Z,92.3
2023-01-19T08:58:16.760Z,92.4
2023-01-19T08:59:17.293Z,92.3
2023-01-19T09:00:16.827Z,92.3
2023-01-19T09:01:17.674Z,91.9
2023-01-19T09:02:17.025Z,92.3
2023-01-19T09:03:16.680Z,92.4
2023-01-19T09:04:17.252Z,92.6
2023-01-19T09:05:16.820Z,92.7
2023-01-19T09:06:17.284Z,92.8
2023-01-19T09:07:16.790Z,92.7
2023-01-19T09:08:17.385Z,92.5
2023-01-19T09:09:16.924Z,92.6
2023-01-19T09:10:17.438Z,92.5
2023-01-19T09:11:16.937Z,92.4
2023-01-19T09:12:16.638Z,92.2
2023-01-19T09:13:17.183Z,92.3
2023-01-19T09:14:16.767Z,92.3
2023-01-19T09:15:17.305Z,92.4
2023-01-19T09:16:16.893Z,92.3
2023-01-19T09:17:17.395Z,92.3
2023-01-19T09:18:16.910Z,91.9
2023-01-19T09:19:17.428Z,91.8
2023-01-19T09:20:17.130Z,91.6
2023-01-19T09:21:16.861Z,91.5
2023-01-19T09:22:16.841Z,91.9
2023-01-19T09:23:17.371Z,91.8
2023-01-19T09:24:16.915Z,90.9
2023-01-19T09:25:17.411Z,90.3
2023-01-19T09:26:16.962Z,90.4
2023-01-19T09:27:16.493Z,90.6
2023-01-19T09:28:17.013Z,90.6
2023-01-19T09:29:16.543Z,90.1
2023-01-19T09:30:17.025Z,90.0
2023-01-19T09:31:16.846Z,89.7
2023-01-19T09:32:17.074Z,89.4
2023-01-19T09:33:16.657Z,89.4
2023-01-19T09:34:17.149Z,89.5
2023-01-19T09:35:16.729Z,89.3
2023-01-19T09:36:17.292Z,89.1
2023-01-19T09:37:16.801Z,88.7
2023-01-19T09:38:17.299Z,88.6
2023-01-19T09:39:16.806Z,89.1
2023-01-19T09:40:17.317Z,89.0
2023-01-19T09:41:16.889Z,89.6
2023-01-19T09:42:17.455Z,89.6
2023-01-19T09:43:16.935Z,89.6
2023-01-19T09:44:17.421Z,89.5
2023-01-19T09:45:16.989Z,89.5
2023-01-19T09:46:16.671Z,89.1
2023-01-19T09:47:17.207Z,89.0
2023-01-19T09:48:16.698Z,88.8
2023-01-19T09:49:17.240Z,89.4
2023-01-19T09:50:16.767Z,89.1
2023-01-19T09:51:17.287Z,89.4
2023-01-19T09:52:16.618Z,89.3
2023-01-19T09:53:17.123Z,89.6
2023-01-19T09:54:16.632Z,89.6
2023-01-19T09:55:17.142Z,89.5
2023-01-19T09:56:16.646Z,89.7
2023-01-19T09:57:17.151Z,89.2
2023-01-19T09:58:16.648Z,89.4
2023-01-19T09:59:17.151Z,89.5
2023-01-19T10:00:16.697Z,89.7
2023-01-19T10:01:17.502Z,89.6
2023-01-19T10:02:16.827Z,89.6
2023-01-19T10:03:17.462Z,89.3
2023-01-19T10:04:17.001Z,89.3
2023-01-19T10:05:16.522Z,89.3
2023-01-19T10:06:17.101Z,89.6
2023-01-19T10:07:16.755Z,89.2
2023-01-19T10:08:17.271Z,89.0
2023-01-19T10:09:16.756Z,89.5
2023-01-19T10:10:17.256Z,89.6
2023-01-19T10:11:16.763Z,89.5
2023-01-19T10:12:19.927Z,88.9
2023-01-19T10:13:17.426Z,89.3
2023-01-19T10:14:16.934Z,89.4
2023-01-19T10:15:17.446Z,88.9
2023-01-19T10:16:17.065Z,89.0
2023-01-19T10:17:16.607Z,88.7
2023-01-19T10:18:17.133Z,89.3
2023-01-19T10:19:16.623Z,89.2
2023-01-19T10:20:17.164Z,88.9
2023-01-19T10:21:16.876Z,88.8
2023-01-19T10:22:17.363Z,88.9
2023-01-19T10:23:16.910Z,88.7
2023-01-19T10:24:17.402Z,89.0
2023-01-19T10:25:17.066Z,88.8
2023-01-19T10:26:16.621Z,89.2
2023-01-19T10:27:17.143Z,89.3
2023-01-19T10:28:16.699Z,89.1
2023-01-19T10:29:17.227Z,88.8
2023-01-19T10:30:16.763Z,88.2
2023-01-19T10:31:17.688Z,88.5
2023-01-19T10:32:16.924Z,89.0
2023-01-19T10:33:17.490Z,89.1
2023-01-19T10:34:23.466Z,89.1
2023-01-19T10:35:17.284Z,88.6
2023-01-19T10:36:16.841Z,88.9
2023-01-19T10:37:17.395Z,89.0
2023-01-19T10:38:16.927Z,89.0
2023-01-19T10:39:17.596Z,89.1
2023-01-19T10:40:17.160Z,88.4
2023-01-19T10:41:16.708Z,88.5
2023-01-19T10:42:17.196Z,88.6
2023-01-19T10:43:16.702Z,88.9
2023-01-19T10:44:17.272Z,88.8
2023-01-19T10:45:16.851Z,88.5
2023-01-19T10:46:17.608Z,88.6
2023-01-19T10:47:17.138Z,88.7
2023-01-19T10:48:16.735Z,88.7
2023-01-19T10:49:17.364Z,88.8
2023-01-19T10:50:16.939Z,88.9
2023-01-19T10:51:17.573Z,89.0
2023-01-19T10:52:19.185Z,89.0
2023-01-19T10:53:16.739Z,88.9
2023-01-19T10:54:17.334Z,88.9
2023-01-19T10:55:16.954Z,88.9
2023-01-19T10:56:17.456Z,89.0
2023-01-19T10:57:16.978Z,89.0
2023-01-19T10:58:19.041Z,89.0
2023-01-19T10:59:16.667Z,88.9
2023-01-19T11:00:17.233Z,89.0
2023-01-19T11:01:17.078Z,89.1
2023-01-19T11:02:17.069Z,89.1
2023-01-19T11:03:16.858Z,89.1
2023-01-19T11:04:17.412Z,89.1
2023-01-19T11:05:16.919Z,89.1
2023-01-19T11:06:17.435Z,88.9
2023-01-19T11:07:16.949Z,88.5
2023-01-19T11:08:17.440Z,88.4
2023-01-19T11:09:16.923Z,88.1
2023-01-19T11:10:17.982Z,88.2
2023-01-19T11:11:16.693Z,88.2
2023-01-19T11:12:16.614Z,87.8
2023-01-19T11:13:17.123Z,88.0
2023-01-19T11:14:16.667Z,88.0
2023-01-19T11:15:17.198Z,88.1
2023-01-19T11:16:16.807Z,87.5
2023-01-19T11:17:17.310Z,87.6
2023-01-19T11:18:16.810Z,87.5
2023-01-19T11:19:17.310Z,87.6
2023-01-19T11:20:17.049Z,87.5
2023-01-19T11:21:16.585Z,87.6
2023-01-19T11:22:17.196Z,87.6
2023-01-19T11:23:16.716Z,87.6
2023-01-19T11:24:17.211Z,87.4
2023-01-19T11:25:16.719Z,87.4
2023-01-19T11:26:17.200Z,87.4
2023-01-19T11:27:16.717Z,87.2
2023-01-19T11:28:17.342Z,87.1
2023-01-19T11:29:16.840Z,87.0
2023-01-19T11:30:17.440Z,87.2
2023-01-19T11:31:17.445Z,87.2
2023-01-19T11:32:16.476Z,87.3
2023-01-19T11:33:16.995Z,87.2
2023-01-19T11:34:16.489Z,86.8
2023-01-19T11:35:16.992Z,86.6
2023-01-19T11:36:16.547Z,87.0
2023-01-19T11:37:17.039Z,86.9
2023-01-19T11:38:16.563Z,86.7
2023-01-19T11:39:17.107Z,86.7
2023-01-19T11:40:16.622Z,86.7
2023-01-19T11:41:17.136Z,86.4
2023-01-19T11:42:16.737Z,86.7
2023-01-19T11:43:17.257Z,86.9
2023-01-19T11:44:16.782Z,86.6
2023-01-19T11:45:17.324Z,86.8
2023-01-19T11:46:16.897Z,86.5
2023-01-19T11:47:17.471Z,86.0
2023-01-19T11:48:17.002Z,86.3
2023-01-19T11:49:16.494Z,86.8
2023-01-19T11:50:17.093Z,86.1
2023-01-19T11:51:16.617Z,85.8
2023-01-19T11:52:17.051Z,85.8
2023-01-19T11:53:16.601Z,86.2
2023-01-19T11:54:17.125Z,86.3
2023-01-19T11:55:16.631Z,86.2
2023-01-19T11:56:17.180Z,86.2
2023-01-19T11:57:16.772Z,85.9
2023-01-19T11:58:17.290Z,86.2
2023-01-19T11:59:16.815Z,86.1
2023-01-19T12:00:17.350Z,86.2
2023-01-19T12:01:16.983Z,86.1
2023-01-19T12:02:17.593Z,86.2
2023-01-19T12:03:17.344Z,86.4
2023-01-19T12:04:16.913Z,86.3
2023-01-19T12:05:17.423Z,86.3
2023-01-19T12:06:16.949Z,86.2
2023-01-19T12:07:17.456Z,86.1
2023-01-19T12:08:16.982Z,85.7
2023-01-19T12:09:16.514Z,86.1
2023-01-19T12:10:17.020Z,85.9
2023-01-19T12:11:16.540Z,85.9
2023-01-19T12:12:17.139Z,85.8
2023-01-19T12:13:16.686Z,85.8
2023-01-19T12:14:17.222Z,85.9
2023-01-19T12:15:16.806Z,85.9
2023-01-19T12:16:17.348Z,85.8
2023-01-19T12:17:16.847Z,85.9
2023-01-19T12:18:17.328Z,86.1
2023-01-19T12:19:16.842Z,86.2
2023-01-19T12:20:17.362Z,85.8
2023-01-19T12:21:16.907Z,85.9
2023-01-19T12:22:17.364Z,86.0
2023-01-19T12:23:16.892Z,85.5
2023-01-19T12:24:17.509Z,85.4
2023-01-19T12:25:17.020Z,85.4
2023-01-19T12:26:16.523Z,85.1
2023-01-19T12:27:17.027Z,85.4
2023-01-19T12:28:16.515Z,85.6
2023-01-19T12:29:16.997Z,85.7
2023-01-19T12:30:16.495Z,85.8
2023-01-19T12:31:17.241Z,85.8
2023-01-19T12:32:17.385Z,85.7
2023-01-19T12:33:16.885Z,85.8
2023-01-19T12:34:17.442Z,86.0
2023-01-19T12:35:16.935Z,85.9
2023-01-19T12:36:17.587Z,86.1
2023-01-19T12:37:17.102Z,86.3
2023-01-19T12:38:16.594Z,86.3
2023-01-19T12:39:17.251Z,86.4
2023-01-19T12:40:16.794Z,86.4
2023-01-19T12:41:17.326Z,86.3
2023-01-19T12:42:16.780Z,86.5
2023-01-19T12:43:17.317Z,86.7
2023-01-19T12:44:16.886Z,86.8
2023-01-19T12:45:17.452Z,86.7
2023-01-19T12:46:17.136Z,86.7
2023-01-19T12:47:16.704Z,86.9
2023-01-19T12:48:17.252Z,86.9
2023-01-19T12:49:16.859Z,86.8
2023-01-19T12:50:17.418Z,86.8
2023-01-19T12:51:16.972Z,86.6
2023-01-19T12:52:17.079Z,86.3
2023-01-19T12:53:16.703Z,86.6
2023-01-19T12:54:17.214Z,86.5
2023-01-19T12:55:16.763Z,86.4
2023-01-19T12:56:17.251Z,86.5
2023-01-19T12:57:16.769Z,86.2
2023-01-19T12:58:17.254Z,86.2
2023-01-19T12:59:16.762Z,86.2
2023-01-19T13:00:17.304Z,86.0
2023-01-19T13:01:17.111Z,85.5
2023-01-19T13:02:17.283Z,85.7
2023-01-19T13:03:16.855Z,85.8
2023-01-19T13:04:17.376Z,85.7
2023-01-19T13:05:17.079Z,85.3
2023-01-19T13:06:16.752Z,85.4
2023-01-19T13:07:17.270Z,85.0
2023-01-19T13:08:16.813Z,84.8
2023-01-19T13:09:17.332Z,84.7
2023-01-19T13:10:16.825Z,85.1
2023-01-19T13:11:17.376Z,84.7
2023-01-19T13:12:16.886Z,84.4
2023-01-19T13:13:17.511Z,84.8
2023-01-19T13:14:17.041Z,84.4
2023-01-19T13:15:16.568Z,84.1
2023-01-19T13:16:17.271Z,84.4
2023-01-19T13:17:16.832Z,84.5
2023-01-19T13:18:17.337Z,83.9